Terminal Aerodrome Forecast
Issued by NWS

Home | Current Version | Previous Version | Text Only | Print | Product List | Glossary On
Versions: 1 2 3 4 5 6 7 8 9 10 11 12 13 14 15 16 17 18 19
000
FTUS46 KMTR 241600 AAA
TAFMRY
TAF AMD
KMRY 241628Z 2416/2512 21004KT P6SM BKN008 OVC012
     FM242000 26008KT P6SM SCT015
     FM250200 24008KT P6SM OVC015=

USA.gov is the U.S. government's official web portal to all federal, state and local government web resources and services.